Time;durP1;ratioP1;P1;durP2;ratioP2;P2;SDS_P1;SDS_P2;PMS_P1;PMS_P2;Temp;Humidity;BMP_temperature;BMP_pressure;BME280_temperature;BME280_humidity;BME280_pressure;Samples;Min_cycle;Max_cycle;Signal;HPM_P1;HPM_P2
2023/12/16 00:01:43;;;;;;;0.00;0.00;;;24.00;49.40;;;;;;5111956;28;20197;-53
2023/12/16 00:04:14;;;;;;;0.10;0.10;;;24.00;49.40;;;;;;5112196;28;20235;-50
2023/12/16 00:06:46;;;;;;;0.00;0.00;;;24.00;49.30;;;;;;5112062;28;20197;-51
2023/12/16 00:09:17;;;;;;;0.10;0.10;;;24.10;49.20;;;;;;5111971;28;20189;-56
2023/12/16 00:11:48;;;;;;;0.00;0.00;;;24.10;49.20;;;;;;5111863;28;20202;-49
2023/12/16 00:14:19;;;;;;;0.00;0.00;;;24.10;49.10;;;;;;5110953;28;20213;-54
2023/12/16 00:16:49;;;;;;;0.00;0.00;;;24.10;49.00;;;;;;5111540;28;20227;-51
2023/12/16 00:19:20;;;;;;;0.00;0.00;;;24.20;49.00;;;;;;5111227;28;20194;-50
2023/12/16 00:21:53;;;;;;;0.00;0.00;;;24.20;48.90;;;;;;5111676;28;20204;-54
2023/12/16 00:24:23;;;;;;;0.00;0.00;;;24.20;49.00;;;;;;5111301;28;20289;-55
2023/12/16 00:26:55;;;;;;;0.08;0.08;;;24.20;49.50;;;;;;5111696;28;20589;-50
2023/12/16 00:29:25;;;;;;;0.00;0.00;;;24.30;49.00;;;;;;5112222;28;20246;-53
2023/12/16 00:31:56;;;;;;;0.00;0.00;;;24.30;48.90;;;;;;5116287;28;20242;-53
2023/12/16 00:34:27;;;;;;;0.00;0.00;;;24.30;48.90;;;;;;5116177;28;20291;-57
2023/12/16 00:36:59;;;;;;;0.00;0.00;;;24.30;48.90;;;;;;5115392;28;20221;-53
2023/12/16 00:39:30;;;;;;;0.00;0.00;;;24.30;48.80;;;;;;5115880;28;20279;-51
2023/12/16 00:42:01;;;;;;;0.00;0.00;;;24.30;48.80;;;;;;5115692;28;20557;-54
2023/12/16 00:44:33;;;;;;;0.00;0.00;;;24.40;48.70;;;;;;5115844;28;20213;-50
2023/12/16 00:47:04;;;;;;;0.00;0.00;;;24.40;48.70;;;;;;5115417;28;20189;-50
2023/12/16 00:49:35;;;;;;;0.00;0.00;;;24.50;48.80;;;;;;5115599;28;20197;-54
2023/12/16 00:52:10;;;;;;;0.00;0.00;;;24.50;48.70;;;;;;5115350;28;20197;-50
2023/12/16 00:54:41;;;;;;;0.00;0.00;;;24.50;48.70;;;;;;5115257;28;20230;-53
2023/12/16 00:57:12;;;;;;;0.00;0.00;;;24.50;48.60;;;;;;5114800;28;20228;-54
2023/12/16 00:59:43;;;;;;;0.00;0.00;;;24.50;48.50;;;;;;5115088;28;20673;-51
2023/12/16 01:02:13;;;;;;;0.00;0.00;;;24.60;48.60;;;;;;5115054;28;20193;-47
2023/12/16 01:04:44;;;;;;;0.00;0.00;;;24.60;48.60;;;;;;5115266;28;20197;-46
2023/12/16 01:07:16;;;;;;;0.00;0.00;;;24.60;48.50;;;;;;5115364;28;20193;-51
2023/12/16 01:09:47;;;;;;;0.00;0.00;;;24.60;48.50;;;;;;5115427;28;20203;-47
2023/12/16 01:12:18;;;;;;;0.00;0.00;;;24.70;48.50;;;;;;5115277;28;20198;-51
2023/12/16 01:14:49;;;;;;;0.00;0.00;;;24.70;48.50;;;;;;5115291;28;20193;-51
2023/12/16 01:17:20;;;;;;;0.00;0.00;;;24.70;48.40;;;;;;5114793;28;20231;-50
2023/12/16 01:19:50;;;;;;;0.00;0.00;;;24.70;48.40;;;;;;5114607;28;20280;-54
2023/12/16 01:22:23;;;;;;;0.00;0.00;;;24.70;48.30;;;;;;5114838;28;20568;-55
2023/12/16 01:24:54;;;;;;;0.00;0.00;;;24.70;48.40;;;;;;5115459;28;20189;-56
2023/12/16 01:27:26;;;;;;;0.00;0.00;;;24.70;48.30;;;;;;5115136;28;20350;-53
2023/12/16 01:29:57;;;;;;;0.00;0.00;;;24.80;48.30;;;;;;5114986;28;20201;-54
2023/12/16 01:32:28;;;;;;;0.00;0.00;;;24.80;48.30;;;;;;5115183;28;20193;-55
2023/12/16 01:34:58;;;;;;;0.00;0.00;;;24.80;48.40;;;;;;5115717;28;20593;-46
2023/12/16 01:37:31;;;;;;;0.00;0.00;;;24.80;48.30;;;;;;5114797;28;20228;-49
2023/12/16 01:40:03;;;;;;;0.00;0.00;;;24.80;48.20;;;;;;5114734;28;20707;-46
2023/12/16 01:42:33;;;;;;;0.00;0.00;;;24.90;48.20;;;;;;5113466;28;20197;-53
2023/12/16 01:45:05;;;;;;;0.00;0.00;;;24.90;48.20;;;;;;5114739;28;20194;-50
2023/12/16 01:47:35;;;;;;;0.00;0.00;;;24.90;48.20;;;;;;5114905;28;20645;-53
2023/12/16 01:50:07;;;;;;;0.00;0.00;;;24.90;48.10;;;;;;5115026;28;20201;-50
2023/12/16 01:52:40;;;;;;;0.00;0.00;;;24.90;48.10;;;;;;5115588;28;20233;-52
2023/12/16 01:55:12;;;;;;;0.00;0.00;;;25.00;48.10;;;;;;5115279;28;20207;-52
2023/12/16 01:57:43;;;;;;;0.00;0.00;;;25.00;48.10;;;;;;5114872;28;20221;-53
2023/12/16 02:00:14;;;;;;;0.00;0.00;;;25.00;48.00;;;;;;5114677;28;20194;-53
2023/12/16 02:02:46;;;;;;;0.00;0.00;;;25.00;48.00;;;;;;5114819;28;20224;-54
2023/12/16 02:05:16;;;;;;;0.00;0.00;;;25.00;47.90;;;;;;5114537;28;20591;-51
2023/12/16 02:07:49;;;;;;;0.00;0.00;;;25.00;47.90;;;;;;5113872;28;20194;-50
2023/12/16 02:10:20;;;;;;;0.00;0.00;;;25.10;48.00;;;;;;5113822;28;20194;-55
2023/12/16 02:12:51;;;;;;;0.00;0.00;;;25.10;47.90;;;;;;5113460;28;20262;-51
2023/12/16 02:15:22;;;;;;;0.00;0.00;;;25.10;48.00;;;;;;5114115;28;20249;-54
2023/12/16 02:17:52;;;;;;;0.00;0.00;;;25.10;48.00;;;;;;5113533;28;20225;-54
2023/12/16 02:20:23;;;;;;;0.00;0.00;;;25.10;48.00;;;;;;5113839;28;20645;-51
2023/12/16 02:22:56;;;;;;;0.00;0.00;;;25.10;47.90;;;;;;5113907;28;20737;-55
2023/12/16 02:25:29;;;;;;;0.00;0.00;;;25.10;47.90;;;;;;5113958;28;20200;-55
2023/12/16 02:28:00;;;;;;;0.00;0.00;;;25.20;47.90;;;;;;5114102;28;20679;-49
2023/12/16 02:30:31;;;;;;;0.00;0.00;;;25.20;47.90;;;;;;5113266;28;20198;-50
2023/12/16 02:33:02;;;;;;;0.00;0.00;;;25.20;48.00;;;;;;5113749;28;20213;-48
2023/12/16 02:35:33;;;;;;;0.00;0.00;;;25.20;48.00;;;;;;5114488;28;20234;-54
2023/12/16 02:38:04;;;;;;;0.00;0.00;;;25.30;48.10;;;;;;5113930;28;20225;-48
2023/12/16 02:40:42;;;;;;;0.00;0.00;;;25.30;48.10;;;;;;5100241;28;20212;-52
2023/12/16 02:43:12;;;;;;;0.00;0.00;;;25.30;48.10;;;;;;5112262;28;20259;-53
2023/12/16 02:45:43;;;;;;;0.00;0.00;;;25.30;48.10;;;;;;5113576;28;20200;-54
2023/12/16 02:48:14;;;;;;;0.00;0.00;;;25.30;48.10;;;;;;5113083;28;20201;-57
2023/12/16 02:50:44;;;;;;;0.00;0.00;;;25.30;48.10;;;;;;5112893;28;20197;-55
2023/12/16 02:53:15;;;;;;;0.00;0.00;;;25.40;48.20;;;;;;5112709;28;20570;-57
2023/12/16 02:55:48;;;;;;;0.00;0.00;;;25.40;48.20;;;;;;5112240;28;20190;-55
2023/12/16 02:58:18;;;;;;;0.00;0.00;;;25.40;48.20;;;;;;5113300;28;20267;-51
2023/12/16 03:00:49;;;;;;;0.00;0.00;;;25.40;48.20;;;;;;5113049;28;20197;-53
2023/12/16 03:03:20;;;;;;;0.00;0.00;;;25.40;48.20;;;;;;5112063;28;20210;-49
2023/12/16 03:05:51;;;;;;;0.00;0.00;;;25.40;48.30;;;;;;5112506;28;20197;-50
2023/12/16 03:08:21;;;;;;;0.00;0.00;;;25.50;48.30;;;;;;5113115;28;20711;-55
2023/12/16 03:10:54;;;;;;;0.00;0.00;;;25.50;48.90;;;;;;5112703;28;20185;-53
2023/12/16 03:13:25;;;;;;;0.00;0.00;;;25.50;48.40;;;;;;5092283;28;20313;-56
2023/12/16 03:15:56;;;;;;;0.00;0.00;;;25.50;48.40;;;;;;5092509;28;20198;-54
2023/12/16 03:18:26;;;;;;;0.00;0.00;;;25.50;48.40;;;;;;5091711;28;20222;-51
2023/12/16 03:20:58;;;;;;;0.00;0.00;;;25.50;48.40;;;;;;5091857;28;20194;-54
2023/12/16 03:23:28;;;;;;;0.00;0.00;;;25.60;48.40;;;;;;5091969;28;20221;-51
2023/12/16 03:26:01;;;;;;;0.00;0.00;;;25.60;48.40;;;;;;5091705;28;20650;-52
2023/12/16 03:28:32;;;;;;;0.00;0.00;;;25.60;48.40;;;;;;5092462;28;20202;-54
2023/12/16 03:31:03;;;;;;;0.00;0.00;;;25.60;48.40;;;;;;5111815;28;20189;-55
2023/12/16 03:33:33;;;;;;;0.00;0.00;;;25.60;48.00;;;;;;5112050;28;20358;-51
2023/12/16 03:36:04;;;;;;;0.00;0.00;;;25.60;48.30;;;;;;5112434;28;20196;-57
2023/12/16 03:38:35;;;;;;;0.00;0.00;;;25.70;48.40;;;;;;5112202;28;20250;-57
2023/12/16 03:41:08;;;;;;;0.00;0.00;;;25.60;48.30;;;;;;5112427;28;20203;-51
2023/12/16 03:44:05;;;;;;;0.00;0.00;;;25.60;48.30;;;;;;5112390;28;20217;-53
2023/12/16 03:46:35;;;;;;;0.00;0.00;;;25.60;48.30;;;;;;5112387;28;20680;-53
2023/12/16 03:49:06;;;;;;;0.00;0.00;;;25.60;48.20;;;;;;5111913;28;20197;-54
2023/12/16 03:51:37;;;;;;;0.00;0.00;;;25.60;48.80;;;;;;5111629;28;20193;-54
2023/12/16 03:54:09;;;;;;;0.00;0.00;;;25.60;48.20;;;;;;5112403;28;20652;-53
2023/12/16 03:56:41;;;;;;;0.00;0.00;;;25.60;48.20;;;;;;5112288;28;20190;-53
2023/12/16 03:59:19;;;;;;;0.00;0.00;;;25.60;48.20;;;;;;5111342;28;20224;-57
2023/12/16 04:01:50;;;;;;;0.00;0.00;;;25.60;48.10;;;;;;5093203;28;20406;-52
2023/12/16 04:04:21;;;;;;;0.00;0.00;;;25.60;48.10;;;;;;5111583;28;20213;-50
2023/12/16 04:06:51;;;;;;;0.00;0.00;;;25.60;48.10;;;;;;5111696;28;20212;-54
2023/12/16 04:09:22;;;;;;;0.00;0.00;;;25.60;48.10;;;;;;5091535;28;20194;-56
2023/12/16 04:11:55;;;;;;;0.00;0.00;;;25.60;48.10;;;;;;5099392;28;20197;-50
2023/12/16 04:14:26;;;;;;;0.00;0.00;;;25.60;48.00;;;;;;5111716;28;20217;-49
2023/12/16 04:16:56;;;;;;;0.00;0.00;;;25.60;48.00;;;;;;5111739;28;20196;-51
2023/12/16 04:19:27;;;;;;;0.00;0.00;;;25.60;48.00;;;;;;5110792;28;20216;-53
2023/12/16 04:21:58;;;;;;;0.00;0.00;;;25.60;48.00;;;;;;5111960;28;20193;-50
2023/12/16 04:24:28;;;;;;;0.00;0.00;;;25.60;48.00;;;;;;5111841;28;20228;-51
2023/12/16 04:27:01;;;;;;;0.00;0.00;;;25.60;48.00;;;;;;5111999;28;20197;-57
2023/12/16 04:29:32;;;;;;;0.00;0.00;;;25.60;48.00;;;;;;5111837;28;20193;-52
2023/12/16 04:32:02;;;;;;;0.00;0.00;;;25.60;48.00;;;;;;5111600;28;20197;-54
2023/12/16 04:34:33;;;;;;;0.00;0.00;;;25.60;48.00;;;;;;5111871;28;20673;-54
2023/12/16 04:37:04;;;;;;;0.00;0.00;;;25.50;47.90;;;;;;5111971;28;20196;-54
2023/12/16 04:39:35;;;;;;;0.00;0.00;;;25.50;48.00;;;;;;5111299;28;20303;-54
2023/12/16 04:42:09;;;;;;;0.00;0.00;;;25.50;48.00;;;;;;5112040;28;20657;-53
2023/12/16 04:44:40;;;;;;;0.00;0.00;;;25.50;48.00;;;;;;5111597;28;20213;-51
2023/12/16 04:47:11;;;;;;;0.00;0.00;;;25.50;48.00;;;;;;5111337;28;20205;-57
2023/12/16 04:49:43;;;;;;;0.00;0.00;;;25.40;48.00;;;;;;5111259;28;20208;-53
2023/12/16 04:52:14;;;;;;;0.00;0.00;;;25.40;48.00;;;;;;5111062;28;20217;-53
2023/12/16 04:54:44;;;;;;;0.00;0.00;;;25.40;48.00;;;;;;5111579;28;20593;-53
2023/12/16 04:57:17;;;;;;;0.00;0.00;;;25.40;48.10;;;;;;5111714;28;20197;-51
2023/12/16 04:59:48;;;;;;;0.00;0.00;;;25.40;48.20;;;;;;5111211;28;20221;-53
2023/12/16 05:02:18;;;;;;;0.00;0.00;;;25.40;48.20;;;;;;5110851;28;20194;-48
2023/12/16 05:04:49;;;;;;;0.00;0.00;;;25.30;48.20;;;;;;5111360;28;20555;-49
2023/12/16 05:07:20;;;;;;;0.00;0.00;;;25.30;48.20;;;;;;5111317;28;20198;-54
2023/12/16 05:09:50;;;;;;;0.00;0.00;;;25.30;48.30;;;;;;5111722;28;20193;-53
2023/12/16 05:12:23;;;;;;;0.00;0.00;;;25.30;48.30;;;;;;5111319;28;20567;-49
2023/12/16 05:14:54;;;;;;;0.00;0.00;;;25.30;48.40;;;;;;5111301;28;20193;-56
2023/12/16 05:17:24;;;;;;;0.00;0.00;;;25.20;48.40;;;;;;5114688;28;20660;-55
2023/12/16 05:19:55;;;;;;;0.00;0.00;;;25.20;48.50;;;;;;5115205;28;20228;-53
2023/12/16 05:22:26;;;;;;;0.00;0.00;;;25.20;48.60;;;;;;5114832;28;20219;-50
2023/12/16 05:24:57;;;;;;;0.00;0.00;;;25.20;48.60;;;;;;5115375;28;20189;-54
2023/12/16 05:27:29;;;;;;;0.00;0.00;;;25.10;48.60;;;;;;5114559;28;20193;-54
2023/12/16 05:30:01;;;;;;;0.00;0.00;;;25.10;48.70;;;;;;5114685;28;20261;-53
2023/12/16 05:32:32;;;;;;;0.00;0.00;;;25.10;48.70;;;;;;5114743;28;20224;-56
2023/12/16 05:35:02;;;;;;;0.00;0.00;;;25.00;48.70;;;;;;5114647;28;20194;-60
2023/12/16 05:37:33;;;;;;;0.00;0.00;;;25.00;48.80;;;;;;5113042;28;20212;-51
2023/12/16 05:40:04;;;;;;;0.00;0.00;;;25.00;48.80;;;;;;5093937;28;20217;-56
2023/12/16 05:42:37;;;;;;;0.00;0.00;;;25.00;48.90;;;;;;5107668;28;20676;-55
2023/12/16 05:45:09;;;;;;;0.00;0.00;;;25.00;48.90;;;;;;5114808;28;20193;-48
2023/12/16 05:47:39;;;;;;;0.00;0.00;;;24.90;48.90;;;;;;5114726;28;20189;-51
2023/12/16 05:50:10;;;;;;;0.00;0.00;;;24.90;48.90;;;;;;5114633;28;20194;-51
2023/12/16 05:52:41;;;;;;;0.00;0.00;;;24.90;49.00;;;;;;5115321;28;20189;-50
2023/12/16 05:55:12;;;;;;;0.00;0.00;;;24.90;49.00;;;;;;5113986;28;20213;-53
2023/12/16 05:57:45;;;;;;;0.00;0.00;;;24.90;49.00;;;;;;5113654;28;20190;-55
2023/12/16 06:00:16;;;;;;;0.00;0.00;;;24.90;49.00;;;;;;5113845;28;20198;-53
2023/12/16 06:02:47;;;;;;;0.00;0.00;;;24.90;48.90;;;;;;5113683;28;20193;-55
2023/12/16 06:05:17;;;;;;;0.00;0.00;;;24.90;48.90;;;;;;5114030;28;20544;-56
2023/12/16 06:07:48;;;;;;;0.00;0.00;;;24.90;48.90;;;;;;5113683;28;20219;-53
2023/12/16 06:10:19;;;;;;;0.00;0.00;;;24.90;48.90;;;;;;5112125;28;20364;-57
2023/12/16 06:12:51;;;;;;;0.00;0.00;;;24.90;48.90;;;;;;5113293;28;20197;-55
2023/12/16 06:15:22;;;;;;;0.00;0.00;;;24.90;48.90;;;;;;5113888;28;20193;-54
2023/12/16 06:17:53;;;;;;;0.00;0.00;;;24.90;48.90;;;;;;5113735;28;20201;-53
2023/12/16 06:20:23;;;;;;;0.00;0.00;;;24.90;48.80;;;;;;5114251;28;20209;-49
2023/12/16 06:22:54;;;;;;;0.00;0.00;;;24.90;48.80;;;;;;5114286;28;20217;-51
2023/12/16 06:25:25;;;;;;;0.00;0.00;;;24.90;48.80;;;;;;5113983;28;20201;-51
2023/12/16 06:27:57;;;;;;;0.00;0.00;;;24.80;48.80;;;;;;5112651;28;20197;-53
2023/12/16 06:30:28;;;;;;;0.00;0.00;;;24.80;48.70;;;;;;5113951;28;20197;-52
2023/12/16 06:32:59;;;;;;;0.00;0.00;;;24.80;48.70;;;;;;5113608;28;20221;-54
2023/12/16 06:35:30;;;;;;;0.00;0.00;;;24.80;48.70;;;;;;5114031;28;20194;-49
2023/12/16 06:38:00;;;;;;;0.00;0.00;;;24.80;48.70;;;;;;5113660;28;20194;-49
2023/12/16 06:40:31;;;;;;;0.00;0.00;;;24.80;48.70;;;;;;5112692;28;20205;-49
2023/12/16 06:43:04;;;;;;;0.00;0.00;;;24.70;48.70;;;;;;5112763;28;20305;-49
2023/12/16 06:45:38;;;;;;;0.00;0.00;;;24.70;48.70;;;;;;5112664;28;20203;-51
2023/12/16 06:48:08;;;;;;;0.03;0.03;;;24.70;48.70;;;;;;5113049;28;20288;-53
2023/12/16 06:50:39;;;;;;;0.00;0.00;;;24.70;48.80;;;;;;5112856;28;20653;-53
2023/12/16 06:53:11;;;;;;;0.00;0.00;;;24.70;48.80;;;;;;5118116;22;20225;-51
2023/12/16 06:55:42;;;;;;;0.00;0.00;;;24.70;48.80;;;;;;5072188;28;20264;-50
2023/12/16 06:58:14;;;;;;;0.08;0.08;;;24.60;48.70;;;;;;5072456;28;20224;-53
2023/12/16 07:00:45;;;;;;;0.00;0.00;;;24.70;48.80;;;;;;5072816;28;20298;-48
2023/12/16 07:03:16;;;;;;;0.00;0.00;;;24.70;48.80;;;;;;5072384;28;20222;-48
2023/12/16 07:05:46;;;;;;;0.00;0.00;;;24.70;48.80;;;;;;5072298;28;20470;-53
2023/12/16 07:08:17;;;;;;;0.00;0.00;;;24.70;48.80;;;;;;5072186;28;20559;-46
2023/12/16 07:10:48;;;;;;;0.00;0.00;;;24.60;48.70;;;;;;5071528;28;20202;-50
2023/12/16 07:13:20;;;;;;;0.00;0.00;;;24.60;48.80;;;;;;5071860;28;20219;-49
2023/12/16 07:15:51;;;;;;;0.00;0.00;;;24.60;48.80;;;;;;5071306;28;20241;-49
2023/12/16 07:18:22;;;;;;;0.00;0.00;;;24.60;48.70;;;;;;5071315;28;20199;-54
2023/12/16 07:20:53;;;;;;;0.00;0.00;;;24.60;48.70;;;;;;5071745;28;20195;-52
2023/12/16 07:23:23;;;;;;;0.00;0.00;;;24.60;48.70;;;;;;5071554;28;20583;-46
2023/12/16 07:25:54;;;;;;;0.00;0.00;;;24.60;48.70;;;;;;5071025;28;20210;-46
2023/12/16 07:28:27;;;;;;;0.00;0.00;;;24.50;48.70;;;;;;5071327;28;20205;-45
2023/12/16 07:30:58;;;;;;;0.00;0.00;;;24.60;48.70;;;;;;5071288;28;20203;-46
2023/12/16 07:33:29;;;;;;;0.00;0.00;;;24.50;48.70;;;;;;5071227;28;20219;-47
2023/12/16 07:35:59;;;;;;;0.00;0.00;;;24.50;48.70;;;;;;5071144;28;20539;-48
2023/12/16 07:38:30;;;;;;;0.00;0.00;;;24.50;48.70;;;;;;5070259;28;20206;-47
2023/12/16 07:41:01;;;;;;;0.00;0.00;;;24.50;48.80;;;;;;5069971;28;20646;-49
2023/12/16 07:43:33;;;;;;;0.00;0.00;;;24.50;48.80;;;;;;5071842;28;20215;-53
2023/12/16 07:46:06;;;;;;;0.00;0.00;;;24.40;48.70;;;;;;5072000;28;20195;-52
2023/12/16 07:48:37;;;;;;;0.00;0.00;;;24.40;48.70;;;;;;5071702;28;20207;-49
2023/12/16 07:51:08;;;;;;;0.00;0.00;;;24.40;48.70;;;;;;5071788;28;20198;-53
2023/12/16 07:53:39;;;;;;;0.00;0.00;;;24.40;48.80;;;;;;5071828;28;20226;-47
2023/12/16 07:56:16;;;;;;;0.00;0.00;;;24.40;48.80;;;;;;5070809;28;20553;-49
2023/12/16 07:58:49;;;;;;;0.00;0.00;;;24.40;48.80;;;;;;5071164;28;20223;-48
2023/12/16 08:01:20;;;;;;;0.00;0.00;;;24.30;48.80;;;;;;5071355;28;20300;-45
2023/12/16 08:03:51;;;;;;;0.00;0.00;;;24.30;48.80;;;;;;5070806;28;20678;-46
2023/12/16 08:06:22;;;;;;;0.00;0.00;;;24.30;48.80;;;;;;5068408;28;20663;-49
2023/12/16 08:08:53;;;;;;;0.00;0.00;;;24.30;48.80;;;;;;5068700;28;20556;-48
2023/12/16 08:11:23;;;;;;;0.00;0.00;;;24.30;48.70;;;;;;5069750;28;20199;-49
2023/12/16 08:13:56;;;;;;;0.00;0.00;;;24.30;48.80;;;;;;5069183;28;20207;-48
2023/12/16 08:16:27;;;;;;;0.00;0.00;;;24.30;48.80;;;;;;5069255;28;20561;-51
2023/12/16 08:18:57;;;;;;;0.00;0.00;;;24.30;48.80;;;;;;5070113;28;20224;-51
2023/12/16 08:21:28;;;;;;;0.00;0.00;;;24.20;48.70;;;;;;5069608;28;20557;-46
2023/12/16 08:23:59;;;;;;;0.00;0.00;;;24.30;48.70;;;;;;5069680;28;20447;-45
2023/12/16 08:26:29;;;;;;;0.00;0.00;;;24.20;48.70;;;;;;5070054;28;20183;-46
2023/12/16 08:29:02;;;;;;;0.00;0.00;;;24.20;48.70;;;;;;5069793;28;20202;-51
2023/12/16 08:31:33;;;;;;;0.00;0.00;;;24.20;48.70;;;;;;5069951;28;20187;-44
2023/12/16 08:34:04;;;;;;;0.00;0.00;;;24.20;48.70;;;;;;5067304;28;20246;-45
2023/12/16 08:36:35;;;;;;;0.00;0.00;;;24.20;48.80;;;;;;5066300;28;20230;-45
2023/12/16 08:39:06;;;;;;;0.00;0.00;;;24.20;48.80;;;;;;5068001;28;20284;-45
2023/12/16 08:41:36;;;;;;;0.00;0.00;;;24.20;48.80;;;;;;5068760;28;20195;-45
2023/12/16 08:44:09;;;;;;;0.00;0.00;;;24.10;48.70;;;;;;5069422;28;20217;-47
2023/12/16 08:46:44;;;;;;;0.05;0.05;;;24.10;48.80;;;;;;5069780;28;20212;-47
2023/12/16 08:49:14;;;;;;;0.00;0.00;;;24.10;48.80;;;;;;5069432;28;20198;-50
2023/12/16 08:51:45;;;;;;;0.10;0.10;;;24.10;48.80;;;;;;5072037;28;20201;-49
2023/12/16 08:54:16;;;;;;;0.00;0.00;;;24.10;48.80;;;;;;5073237;28;20581;-44
2023/12/16 08:56:47;;;;;;;0.08;0.08;;;24.10;48.80;;;;;;5072162;28;20194;-44
2023/12/16 08:59:19;;;;;;;0.00;0.00;;;24.10;48.80;;;;;;5073531;28;20245;-44
2023/12/16 09:01:50;;;;;;;0.00;0.00;;;24.10;48.80;;;;;;5062293;28;20194;-49
2023/12/16 09:04:21;;;;;;;0.00;0.00;;;24.00;48.70;;;;;;5072338;28;20222;-47
2023/12/16 09:06:51;;;;;;;0.00;0.00;;;24.00;48.70;;;;;;5072417;28;20199;-45
2023/12/16 09:09:22;;;;;;;0.00;0.00;;;24.00;48.70;;;;;;5073153;28;20198;-45
2023/12/16 09:11:53;;;;;;;0.03;0.03;;;24.00;48.70;;;;;;5073240;28;20191;-49
2023/12/16 09:14:25;;;;;;;0.00;0.00;;;24.00;48.70;;;;;;5073329;28;20305;-43
2023/12/16 09:16:56;;;;;;;0.00;0.00;;;24.00;48.70;;;;;;5072981;28;20195;-43
2023/12/16 09:19:27;;;;;;;0.00;0.00;;;24.00;48.90;;;;;;5073383;28;20220;-46
2023/12/16 09:21:58;;;;;;;0.00;0.00;;;23.90;48.70;;;;;;5072659;28;20278;-46
2023/12/16 09:24:28;;;;;;;0.00;0.00;;;23.90;48.70;;;;;;5072528;28;20217;-46
2023/12/16 09:26:59;;;;;;;0.10;0.10;;;23.90;48.70;;;;;;5073945;28;20561;-46
2023/12/16 09:29:32;;;;;;;0.00;0.00;;;23.90;48.70;;;;;;5073202;28;20194;-48
2023/12/16 09:32:02;;;;;;;0.00;0.00;;;23.80;48.70;;;;;;5073414;28;20199;-47
2023/12/16 09:34:33;;;;;;;0.00;0.00;;;23.80;48.70;;;;;;5074102;28;20301;-51
2023/12/16 09:37:04;;;;;;;0.00;0.00;;;23.80;48.80;;;;;;5074348;28;20194;-45
2023/12/16 09:39:34;;;;;;;0.00;0.00;;;23.80;48.70;;;;;;5073373;28;20590;-47
2023/12/16 09:42:09;;;;;;;0.00;0.00;;;23.80;48.70;;;;;;5073930;28;20202;-51
2023/12/16 09:44:43;;;;;;;0.00;0.00;;;23.80;48.70;;;;;;5073209;28;20210;-52
2023/12/16 09:47:15;;;;;;;0.00;0.00;;;23.80;48.80;;;;;;5073394;28;20555;-49
2023/12/16 09:49:49;;;;;;;0.00;0.00;;;23.80;48.70;;;;;;5073681;28;20551;-47
2023/12/16 09:52:19;;;;;;;0.00;0.00;;;23.80;48.70;;;;;;5071272;28;20197;-52
2023/12/16 09:54:50;;;;;;;0.08;0.08;;;23.70;48.70;;;;;;5073242;28;20230;-51
2023/12/16 09:57:23;;;;;;;0.00;0.00;;;23.70;48.60;;;;;;5073944;28;20195;-51
2023/12/16 09:59:57;;;;;;;0.00;0.00;;;23.70;48.60;;;;;;5073226;28;20698;-50
2023/12/16 10:02:30;;;;;;;0.00;0.00;;;23.70;48.60;;;;;;5072234;28;20191;-48
2023/12/16 10:05:01;;;;;;;0.00;0.00;;;23.70;48.70;;;;;;5070968;28;20670;-52
2023/12/16 10:07:32;;;;;;;0.00;0.00;;;23.70;48.70;;;;;;5072767;28;20193;-50
2023/12/16 10:10:03;;;;;;;0.00;0.00;;;23.60;48.60;;;;;;5072413;28;20191;-45
2023/12/16 10:12:37;;;;;;;0.08;0.08;;;23.60;48.60;;;;;;5072267;28;20199;-46
2023/12/16 10:15:12;;;;;;;0.00;0.00;;;23.60;48.70;;;;;;5072463;28;20210;-48
2023/12/16 10:17:46;;;;;;;0.00;0.00;;;23.60;48.70;;;;;;5070928;28;20198;-49
2023/12/16 10:20:17;;;;;;;0.00;0.00;;;23.60;48.70;;;;;;5072247;28;20222;-45
2023/12/16 10:22:48;;;;;;;0.00;0.00;;;23.60;48.70;;;;;;5072493;28;20198;-49
2023/12/16 10:25:19;;;;;;;0.00;0.00;;;23.50;48.70;;;;;;5069392;28;20194;-45
2023/12/16 10:27:51;;;;;;;0.00;0.00;;;23.50;48.80;;;;;;5072339;28;20237;-45
2023/12/16 10:30:23;;;;;;;0.00;0.00;;;23.50;48.70;;;;;;5070799;28;20191;-47
2023/12/16 10:32:57;;;;;;;0.00;0.00;;;23.50;48.80;;;;;;5072432;28;20195;-51
2023/12/16 10:35:27;;;;;;;0.10;0.10;;;23.50;48.90;;;;;;5072618;28;20638;-46
2023/12/16 10:37:58;;;;;;;0.00;0.00;;;23.50;48.90;;;;;;5070242;28;20197;-48
2023/12/16 10:40:29;;;;;;;0.00;0.00;;;23.50;48.90;;;;;;5072049;28;20231;-45
2023/12/16 10:43:00;;;;;;;0.10;0.10;;;23.50;49.00;;;;;;5072595;28;20205;-50
2023/12/16 10:45:32;;;;;;;0.00;0.00;;;23.50;49.00;;;;;;5072961;28;20565;-47
2023/12/16 10:48:07;;;;;;;0.10;0.10;;;23.50;49.00;;;;;;5072483;28;20204;-48
2023/12/16 10:50:43;;;;;;;0.00;0.00;;;23.50;49.00;;;;;;5072407;28;20191;-50
2023/12/16 10:53:20;;;;;;;0.00;0.00;;;23.40;49.00;;;;;;5073117;28;20226;-50
2023/12/16 10:55:55;;;;;;;0.10;0.10;;;23.40;49.00;;;;;;5072438;28;20232;-56
2023/12/16 10:58:29;;;;;;;0.00;0.00;;;23.40;49.00;;;;;;5071549;28;20194;-53
2023/12/16 11:01:07;;;;;;;0.00;0.00;;;23.40;49.10;;;;;;5071517;28;20218;-50
2023/12/16 11:03:40;;;;;;;0.00;0.00;;;23.40;49.10;;;;;;5070671;28;20565;-56
2023/12/16 11:06:14;;;;;;;0.00;0.00;;;23.40;49.20;;;;;;5070241;28;20545;-54
2023/12/16 11:08:45;;;;;;;0.00;0.00;;;23.40;49.20;;;;;;5072151;28;20236;-56
2023/12/16 11:11:18;;;;;;;0.00;0.00;;;23.40;49.30;;;;;;5071561;28;20214;-56
2023/12/16 11:13:52;;;;;;;0.00;0.00;;;23.40;49.30;;;;;;5069312;28;20217;-56
2023/12/16 11:16:29;;;;;;;0.00;0.00;;;23.40;49.30;;;;;;5071754;28;20187;-57
2023/12/16 11:19:03;;;;;;;0.00;0.00;;;23.30;49.40;;;;;;5071780;28;20198;-46
2023/12/16 11:21:34;;;;;;;0.00;0.00;;;23.30;49.30;;;;;;5052070;28;20721;-46
2023/12/16 11:24:05;;;;;;;0.00;0.00;;;23.30;49.40;;;;;;5052029;28;20589;-48
2023/12/16 11:26:37;;;;;;;0.10;0.10;;;23.30;49.40;;;;;;5052060;28;20191;-50
2023/12/16 11:29:08;;;;;;;0.00;0.00;;;23.30;49.40;;;;;;5052026;28;20673;-45
2023/12/16 11:31:42;;;;;;;0.00;0.00;;;23.30;49.40;;;;;;5052090;28;20196;-49
2023/12/16 11:34:13;;;;;;;0.00;0.00;;;23.30;49.40;;;;;;5051971;28;20706;-46
2023/12/16 11:36:55;;;;;;;0.00;0.00;;;23.30;49.40;;;;;;5052107;28;20195;-45
2023/12/16 11:39:42;;;;;;;0.10;0.10;;;23.30;49.60;;;;;;5051994;28;20254;-49
2023/12/16 11:42:13;;;;;;;0.00;0.00;;;23.30;49.60;;;;;;5062548;28;20202;-48
2023/12/16 11:44:54;;;;;;;0.00;0.00;;;23.30;49.60;;;;;;5071260;28;20554;-46
2023/12/16 11:47:27;;;;;;;0.00;0.00;;;23.20;49.50;;;;;;5071031;28;20201;-50
2023/12/16 11:49:59;;;;;;;0.00;0.00;;;23.20;49.60;;;;;;5071670;28;20201;-50
2023/12/16 11:52:29;;;;;;;0.00;0.00;;;23.20;49.50;;;;;;5071706;28;20195;-46
2023/12/16 11:55:00;;;;;;;0.00;0.00;;;23.20;49.60;;;;;;5071987;28;20227;-48
2023/12/16 11:57:32;;;;;;;0.03;0.03;;;23.20;49.60;;;;;;5071516;28;20202;-46
2023/12/16 12:00:02;;;;;;;0.00;0.00;;;23.20;49.60;;;;;;5071573;28;20195;-46
2023/12/16 12:02:35;;;;;;;0.00;0.00;;;23.10;49.60;;;;;;5071496;28;20191;-46
2023/12/16 12:05:11;;;;;;;0.00;0.00;;;23.10;49.60;;;;;;5070512;28;20203;-45
2023/12/16 12:07:43;;;;;;;0.00;0.00;;;23.10;49.60;;;;;;5069852;28;20247;-50
2023/12/16 12:10:14;;;;;;;0.00;0.00;;;23.10;49.60;;;;;;5070844;28;20194;-47
2023/12/16 12:12:45;;;;;;;0.00;0.00;;;23.10;49.60;;;;;;5071300;28;20203;-46
2023/12/16 12:15:16;;;;;;;0.00;0.00;;;23.10;49.60;;;;;;5071731;28;20577;-46
2023/12/16 12:17:49;;;;;;;0.00;0.00;;;23.10;49.50;;;;;;5071167;28;20202;-45
2023/12/16 12:20:21;;;;;;;0.00;0.00;;;23.10;49.50;;;;;;5070854;28;20225;-46
2023/12/16 12:22:52;;;;;;;0.00;0.00;;;23.10;49.50;;;;;;5071219;28;20664;-48
2023/12/16 12:25:23;;;;;;;0.00;0.00;;;23.00;49.40;;;;;;5070682;28;20202;-45
2023/12/16 12:27:54;;;;;;;0.00;0.00;;;23.10;49.50;;;;;;5071391;28;20198;-50
2023/12/16 12:30:25;;;;;;;0.00;0.00;;;23.00;49.40;;;;;;5071769;28;20635;-45
2023/12/16 12:32:58;;;;;;;0.00;0.00;;;23.00;49.40;;;;;;5071074;28;20194;-47
2023/12/16 12:35:29;;;;;;;0.03;0.03;;;23.00;49.40;;;;;;5070621;28;20620;-45
2023/12/16 12:38:00;;;;;;;0.10;0.10;;;23.00;49.40;;;;;;5070971;28;20198;-45
2023/12/16 12:40:30;;;;;;;0.00;0.00;;;23.00;49.40;;;;;;5071191;28;20218;-53
2023/12/16 12:43:02;;;;;;;0.00;0.00;;;23.00;50.00;;;;;;5071166;28;20203;-50
2023/12/16 12:45:34;;;;;;;0.00;0.00;;;23.00;49.40;;;;;;5071230;28;20643;-46
2023/12/16 12:48:16;;;;;;;0.00;0.00;;;22.90;49.40;;;;;;5071317;28;20543;-52
2023/12/16 12:50:48;;;;;;;0.00;0.00;;;22.90;49.40;;;;;;5071110;28;20210;-48
2023/12/16 12:53:19;;;;;;;0.00;0.00;;;22.90;49.40;;;;;;5071332;28;20214;-49
2023/12/16 12:55:50;;;;;;;0.03;0.03;;;22.90;49.40;;;;;;5071025;28;20213;-51
2023/12/16 12:58:22;;;;;;;0.00;0.00;;;22.90;49.50;;;;;;5070603;28;20554;-51
2023/12/16 13:00:53;;;;;;;0.00;0.00;;;22.90;49.40;;;;;;5070375;28;20222;-46
2023/12/16 13:03:25;;;;;;;0.00;0.00;;;22.90;49.50;;;;;;5069970;28;20475;-43
2023/12/16 13:05:56;;;;;;;0.00;0.00;;;22.90;50.00;;;;;;5070803;28;20198;-47
2023/12/16 13:08:27;;;;;;;0.08;0.08;;;22.90;49.40;;;;;;5070637;28;20199;-49
2023/12/16 13:10:58;;;;;;;0.00;0.00;;;22.80;49.40;;;;;;5070365;28;20202;-46